sensor_id;sensor_type;location;lat;lon;timestamp;P1;durP1;ratioP1;P2;durP2;ratioP2
32319;SDS011;19080;51.750;5.888;2022-07-30T00:00:32;7.68;;;6.75;;
32319;SDS011;19080;51.750;5.888;2022-07-30T00:02:59;12.23;;;10.30;;
32319;SDS011;19080;51.750;5.888;2022-07-30T00:05:25;15.57;;;12.00;;
32319;SDS011;19080;51.750;5.888;2022-07-30T00:07:52;23.52;;;21.05;;
32319;SDS011;19080;51.750;5.888;2022-07-30T00:10:18;27.98;;;23.60;;
32319;SDS011;19080;51.750;5.888;2022-07-30T00:12:45;21.67;;;19.38;;
32319;SDS011;19080;51.750;5.888;2022-07-30T00:15:12;20.10;;;16.20;;
32319;SDS011;19080;51.750;5.888;2022-07-30T00:17:38;21.75;;;18.30;;
32319;SDS011;19080;51.750;5.888;2022-07-30T00:20:05;22.83;;;20.52;;
32319;SDS011;19080;51.750;5.888;2022-07-30T00:22:32;17.88;;;16.05;;
32319;SDS011;19080;51.750;5.888;2022-07-30T00:24:58;23.17;;;20.77;;
32319;SDS011;19080;51.750;5.888;2022-07-30T00:27:25;15.55;;;13.95;;
32319;SDS011;19080;51.750;5.888;2022-07-30T00:29:52;18.30;;;16.33;;
32319;SDS011;19080;51.750;5.888;2022-07-30T00:32:18;15.57;;;14.07;;
32319;SDS011;19080;51.750;5.888;2022-07-30T00:34:44;17.27;;;15.48;;
32319;SDS011;19080;51.750;5.888;2022-07-30T00:37:11;18.23;;;14.73;;
32319;SDS011;19080;51.750;5.888;2022-07-30T00:39:38;17.67;;;14.77;;
32319;SDS011;19080;51.750;5.888;2022-07-30T00:42:04;12.80;;;10.60;;
32319;SDS011;19080;51.750;5.888;2022-07-30T00:44:32;12.25;;;10.10;;
32319;SDS011;19080;51.750;5.888;2022-07-30T00:46:58;10.38;;;9.00;;
32319;SDS011;19080;51.750;5.888;2022-07-30T00:49:25;14.20;;;10.52;;
32319;SDS011;19080;51.750;5.888;2022-07-30T00:51:52;13.55;;;9.70;;
32319;SDS011;19080;51.750;5.888;2022-07-30T00:54:19;17.05;;;10.70;;
32319;SDS011;19080;51.750;5.888;2022-07-30T00:56:46;13.10;;;9.85;;
32319;SDS011;19080;51.750;5.888;2022-07-30T00:59:13;12.02;;;8.73;;
32319;SDS011;19080;51.750;5.888;2022-07-30T01:01:40;10.57;;;9.00;;
32319;SDS011;19080;51.750;5.888;2022-07-30T01:04:07;12.98;;;8.07;;
32319;SDS011;19080;51.750;5.888;2022-07-30T01:06:37;10.38;;;8.82;;
32319;SDS011;19080;51.750;5.888;2022-07-30T01:09:05;13.65;;;8.02;;
32319;SDS011;19080;51.750;5.888;2022-07-30T01:11:35;13.23;;;9.32;;
32319;SDS011;19080;51.750;5.888;2022-07-30T01:14:03;10.90;;;9.75;;
32319;SDS011;19080;51.750;5.888;2022-07-30T01:16:29;12.80;;;9.35;;
32319;SDS011;19080;51.750;5.888;2022-07-30T01:18:56;15.02;;;11.13;;
32319;SDS011;19080;51.750;5.888;2022-07-30T01:21:43;11.68;;;10.05;;
32319;SDS011;19080;51.750;5.888;2022-07-30T01:24:24;11.25;;;10.05;;
32319;SDS011;19080;51.750;5.888;2022-07-30T01:26:52;10.18;;;9.07;;
32319;SDS011;19080;51.750;5.888;2022-07-30T01:29:19;11.10;;;9.60;;
32319;SDS011;19080;51.750;5.888;2022-07-30T01:31:48;12.98;;;10.95;;
32319;SDS011;19080;51.750;5.888;2022-07-30T01:34:15;12.23;;;9.15;;
32319;SDS011;19080;51.750;5.888;2022-07-30T01:36:42;11.13;;;10.02;;
32319;SDS011;19080;51.750;5.888;2022-07-30T01:39:10;11.88;;;10.73;;
32319;SDS011;19080;51.750;5.888;2022-07-30T01:41:37;13.23;;;11.63;;
32319;SDS011;19080;51.750;5.888;2022-07-30T01:44:04;14.30;;;12.82;;
32319;SDS011;19080;51.750;5.888;2022-07-30T01:46:32;15.15;;;13.18;;
32319;SDS011;19080;51.750;5.888;2022-07-30T01:48:59;16.70;;;13.90;;
32319;SDS011;19080;51.750;5.888;2022-07-30T01:51:29;24.33;;;20.42;;
32319;SDS011;19080;51.750;5.888;2022-07-30T01:54:04;16.10;;;14.50;;
32319;SDS011;19080;51.750;5.888;2022-07-30T01:56:32;20.10;;;17.95;;
32319;SDS011;19080;51.750;5.888;2022-07-30T01:59:00;21.85;;;18.10;;
32319;SDS011;19080;51.750;5.888;2022-07-30T02:01:28;22.35;;;19.85;;
32319;SDS011;19080;51.750;5.888;2022-07-30T02:03:58;19.40;;;16.10;;
32319;SDS011;19080;51.750;5.888;2022-07-30T02:06:28;20.25;;;18.17;;
32319;SDS011;19080;51.750;5.888;2022-07-30T02:09:00;21.48;;;17.55;;
32319;SDS011;19080;51.750;5.888;2022-07-30T02:11:39;19.92;;;16.85;;
32319;SDS011;19080;51.750;5.888;2022-07-30T02:14:27;19.63;;;16.98;;
32319;SDS011;19080;51.750;5.888;2022-07-30T02:16:55;20.63;;;16.77;;
32319;SDS011;19080;51.750;5.888;2022-07-30T02:19:24;20.70;;;15.20;;
32319;SDS011;19080;51.750;5.888;2022-07-30T02:22:00;16.15;;;14.18;;
32319;SDS011;19080;51.750;5.888;2022-07-30T02:24:30;16.17;;;14.47;;
32319;SDS011;19080;51.750;5.888;2022-07-30T02:27:02;18.38;;;14.45;;
32319;SDS011;19080;51.750;5.888;2022-07-30T02:29:33;16.77;;;13.05;;
32319;SDS011;19080;51.750;5.888;2022-07-30T02:32:01;17.00;;;14.10;;
32319;SDS011;19080;51.750;5.888;2022-07-30T02:34:32;17.30;;;14.32;;
32319;SDS011;19080;51.750;5.888;2022-07-30T02:36:59;14.10;;;12.57;;
32319;SDS011;19080;51.750;5.888;2022-07-30T02:39:26;17.75;;;13.70;;
32319;SDS011;19080;51.750;5.888;2022-07-30T02:41:53;20.50;;;13.70;;
32319;SDS011;19080;51.750;5.888;2022-07-30T02:44:21;16.25;;;12.52;;
32319;SDS011;19080;51.750;5.888;2022-07-30T02:46:48;20.80;;;14.55;;
32319;SDS011;19080;51.750;5.888;2022-07-30T02:49:36;21.02;;;14.77;;
32319;SDS011;19080;51.750;5.888;2022-07-30T02:52:04;22.05;;;15.25;;
32319;SDS011;19080;51.750;5.888;2022-07-30T02:54:34;22.63;;;14.68;;
32319;SDS011;19080;51.750;5.888;2022-07-30T02:57:02;22.33;;;14.02;;
32319;SDS011;19080;51.750;5.888;2022-07-30T02:59:29;18.50;;;14.07;;
32319;SDS011;19080;51.750;5.888;2022-07-30T03:01:56;18.33;;;13.55;;
32319;SDS011;19080;51.750;5.888;2022-07-30T03:04:24;20.02;;;13.13;;
32319;SDS011;19080;51.750;5.888;2022-07-30T03:06:51;18.77;;;13.88;;
32319;SDS011;19080;51.750;5.888;2022-07-30T03:09:18;32.50;;;15.40;;
32319;SDS011;19080;51.750;5.888;2022-07-30T03:11:44;22.70;;;14.80;;
32319;SDS011;19080;51.750;5.888;2022-07-30T03:14:12;23.23;;;15.90;;
32319;SDS011;19080;51.750;5.888;2022-07-30T03:16:39;22.23;;;14.43;;
32319;SDS011;19080;51.750;5.888;2022-07-30T03:19:11;24.27;;;15.40;;
32319;SDS011;19080;51.750;5.888;2022-07-30T03:21:39;25.13;;;14.82;;
32319;SDS011;19080;51.750;5.888;2022-07-30T03:24:06;22.48;;;13.50;;
32319;SDS011;19080;51.750;5.888;2022-07-30T03:26:34;28.52;;;14.50;;
32319;SDS011;19080;51.750;5.888;2022-07-30T03:29:02;23.02;;;13.85;;
32319;SDS011;19080;51.750;5.888;2022-07-30T03:31:29;21.85;;;14.73;;
32319;SDS011;19080;51.750;5.888;2022-07-30T03:36:28;18.42;;;13.20;;
32319;SDS011;19080;51.750;5.888;2022-07-30T03:38:55;21.92;;;13.88;;
32319;SDS011;19080;51.750;5.888;2022-07-30T03:41:22;25.23;;;15.57;;
32319;SDS011;19080;51.750;5.888;2022-07-30T03:43:49;22.60;;;13.32;;
32319;SDS011;19080;51.750;5.888;2022-07-30T03:46:17;25.20;;;13.43;;
32319;SDS011;19080;51.750;5.888;2022-07-30T03:48:47;15.48;;;13.15;;
32319;SDS011;19080;51.750;5.888;2022-07-30T03:51:15;18.42;;;13.45;;
32319;SDS011;19080;51.750;5.888;2022-07-30T03:53:41;15.02;;;11.88;;
32319;SDS011;19080;51.750;5.888;2022-07-30T03:56:27;15.82;;;10.85;;
32319;SDS011;19080;51.750;5.888;2022-07-30T03:59:05;22.30;;;12.23;;
32319;SDS011;19080;51.750;5.888;2022-07-30T04:01:33;13.68;;;10.93;;
32319;SDS011;19080;51.750;5.888;2022-07-30T04:04:09;20.80;;;12.27;;
32319;SDS011;19080;51.750;5.888;2022-07-30T04:06:38;19.45;;;11.18;;
32319;SDS011;19080;51.750;5.888;2022-07-30T04:09:06;19.58;;;11.00;;
32319;SDS011;19080;51.750;5.888;2022-07-30T04:11:32;19.05;;;10.20;;
32319;SDS011;19080;51.750;5.888;2022-07-30T04:14:10;18.58;;;10.25;;
32319;SDS011;19080;51.750;5.888;2022-07-30T04:16:58;14.82;;;9.52;;
32319;SDS011;19080;51.750;5.888;2022-07-30T04:19:28;16.45;;;10.00;;
32319;SDS011;19080;51.750;5.888;2022-07-30T04:21:56;15.00;;;10.52;;
32319;SDS011;19080;51.750;5.888;2022-07-30T04:24:23;13.52;;;9.95;;
32319;SDS011;19080;51.750;5.888;2022-07-30T04:26:51;17.77;;;10.18;;
32319;SDS011;19080;51.750;5.888;2022-07-30T04:29:18;15.60;;;10.00;;
32319;SDS011;19080;51.750;5.888;2022-07-30T04:31:51;17.97;;;10.37;;
32319;SDS011;19080;51.750;5.888;2022-07-30T04:34:45;14.15;;;8.98;;
32319;SDS011;19080;51.750;5.888;2022-07-30T04:37:17;14.85;;;9.85;;
32319;SDS011;19080;51.750;5.888;2022-07-30T04:39:44;13.68;;;9.43;;
32319;SDS011;19080;51.750;5.888;2022-07-30T04:42:10;14.88;;;11.00;;
32319;SDS011;19080;51.750;5.888;2022-07-30T04:44:37;16.13;;;10.75;;
32319;SDS011;19080;51.750;5.888;2022-07-30T04:47:24;13.32;;;9.50;;
32319;SDS011;19080;51.750;5.888;2022-07-30T04:50:09;16.00;;;10.52;;
32319;SDS011;19080;51.750;5.888;2022-07-30T04:52:37;19.92;;;11.40;;
32319;SDS011;19080;51.750;5.888;2022-07-30T04:55:05;13.45;;;8.75;;
32319;SDS011;19080;51.750;5.888;2022-07-30T04:57:33;11.82;;;9.45;;
32319;SDS011;19080;51.750;5.888;2022-07-30T05:00:04;13.75;;;9.80;;
32319;SDS011;19080;51.750;5.888;2022-07-30T05:02:32;17.73;;;9.63;;
32319;SDS011;19080;51.750;5.888;2022-07-30T05:05:00;15.82;;;10.52;;
32319;SDS011;19080;51.750;5.888;2022-07-30T05:07:28;16.35;;;10.15;;
32319;SDS011;19080;51.750;5.888;2022-07-30T05:09:56;16.77;;;10.30;;
32319;SDS011;19080;51.750;5.888;2022-07-30T05:12:35;18.05;;;11.07;;
32319;SDS011;19080;51.750;5.888;2022-07-30T05:15:05;9.82;;;8.50;;
32319;SDS011;19080;51.750;5.888;2022-07-30T05:17:32;15.75;;;9.77;;
32319;SDS011;19080;51.750;5.888;2022-07-30T05:20:00;22.98;;;12.30;;
32319;SDS011;19080;51.750;5.888;2022-07-30T05:22:32;25.67;;;11.55;;
32319;SDS011;19080;51.750;5.888;2022-07-30T05:24:59;18.48;;;11.57;;
32319;SDS011;19080;51.750;5.888;2022-07-30T05:27:26;14.35;;;9.88;;
32319;SDS011;19080;51.750;5.888;2022-07-30T05:29:52;14.48;;;10.13;;
32319;SDS011;19080;51.750;5.888;2022-07-30T05:32:21;18.48;;;12.15;;
32319;SDS011;19080;51.750;5.888;2022-07-30T05:34:52;13.05;;;10.40;;
32319;SDS011;19080;51.750;5.888;2022-07-30T05:37:19;13.20;;;10.23;;
32319;SDS011;19080;51.750;5.888;2022-07-30T05:39:45;19.95;;;12.02;;
32319;SDS011;19080;51.750;5.888;2022-07-30T05:42:37;16.30;;;12.23;;
32319;SDS011;19080;51.750;5.888;2022-07-30T05:45:05;18.98;;;12.57;;
32319;SDS011;19080;51.750;5.888;2022-07-30T05:47:32;19.10;;;13.52;;
32319;SDS011;19080;51.750;5.888;2022-07-30T05:49:58;22.48;;;13.80;;
32319;SDS011;19080;51.750;5.888;2022-07-30T05:52:30;15.88;;;12.95;;
32319;SDS011;19080;51.750;5.888;2022-07-30T05:55:05;18.15;;;14.65;;
32319;SDS011;19080;51.750;5.888;2022-07-30T05:57:52;14.90;;;12.45;;
32319;SDS011;19080;51.750;5.888;2022-07-30T06:00:18;16.80;;;13.70;;
32319;SDS011;19080;51.750;5.888;2022-07-30T06:02:52;13.93;;;11.88;;
32319;SDS011;19080;51.750;5.888;2022-07-30T06:05:21;15.82;;;12.80;;
32319;SDS011;19080;51.750;5.888;2022-07-30T06:07:48;17.05;;;11.43;;
32319;SDS011;19080;51.750;5.888;2022-07-30T06:10:18;12.27;;;11.00;;
32319;SDS011;19080;51.750;5.888;2022-07-30T06:12:45;12.65;;;11.10;;
32319;SDS011;19080;51.750;5.888;2022-07-30T06:15:13;15.75;;;11.70;;
32319;SDS011;19080;51.750;5.888;2022-07-30T06:17:43;13.15;;;10.90;;
32319;SDS011;19080;51.750;5.888;2022-07-30T06:20:37;16.13;;;11.32;;
32319;SDS011;19080;51.750;5.888;2022-07-30T06:23:20;18.73;;;11.48;;
32319;SDS011;19080;51.750;5.888;2022-07-30T06:26:09;16.77;;;11.35;;
32319;SDS011;19080;51.750;5.888;2022-07-30T06:28:36;16.00;;;10.52;;
32319;SDS011;19080;51.750;5.888;2022-07-30T06:31:13;14.40;;;10.15;;
32319;SDS011;19080;51.750;5.888;2022-07-30T06:33:40;13.02;;;9.88;;
32319;SDS011;19080;51.750;5.888;2022-07-30T06:36:08;16.27;;;10.38;;
32319;SDS011;19080;51.750;5.888;2022-07-30T06:39:02;13.77;;;9.40;;
32319;SDS011;19080;51.750;5.888;2022-07-30T06:41:52;13.30;;;9.38;;
32319;SDS011;19080;51.750;5.888;2022-07-30T06:44:18;15.63;;;11.25;;
32319;SDS011;19080;51.750;5.888;2022-07-30T06:47:03;20.33;;;10.90;;
32319;SDS011;19080;51.750;5.888;2022-07-30T06:49:35;18.77;;;10.48;;
32319;SDS011;19080;51.750;5.888;2022-07-30T06:52:03;13.93;;;10.52;;
32319;SDS011;19080;51.750;5.888;2022-07-30T06:54:30;12.95;;;9.77;;
32319;SDS011;19080;51.750;5.888;2022-07-30T06:57:01;15.75;;;8.98;;
32319;SDS011;19080;51.750;5.888;2022-07-30T06:59:28;15.40;;;9.25;;
32319;SDS011;19080;51.750;5.888;2022-07-30T07:02:13;12.85;;;8.85;;
32319;SDS011;19080;51.750;5.888;2022-07-30T07:04:56;8.90;;;7.30;;
32319;SDS011;19080;51.750;5.888;2022-07-30T07:07:22;13.80;;;8.02;;
32319;SDS011;19080;51.750;5.888;2022-07-30T07:10:07;12.98;;;7.80;;
32319;SDS011;19080;51.750;5.888;2022-07-30T07:12:49;13.40;;;7.38;;
32319;SDS011;19080;51.750;5.888;2022-07-30T07:15:18;13.10;;;6.07;;
32319;SDS011;19080;51.750;5.888;2022-07-30T07:17:47;11.43;;;6.32;;
32319;SDS011;19080;51.750;5.888;2022-07-30T07:20:24;13.38;;;5.75;;
32319;SDS011;19080;51.750;5.888;2022-07-30T07:22:58;11.07;;;4.88;;
32319;SDS011;19080;51.750;5.888;2022-07-30T07:25:25;10.00;;;4.05;;
32319;SDS011;19080;51.750;5.888;2022-07-30T07:27:51;15.05;;;4.82;;
32319;SDS011;19080;51.750;5.888;2022-07-30T07:30:38;10.63;;;4.53;;
32319;SDS011;19080;51.750;5.888;2022-07-30T07:33:06;12.57;;;4.55;;
32319;SDS011;19080;51.750;5.888;2022-07-30T07:35:32;9.27;;;4.28;;
32319;SDS011;19080;51.750;5.888;2022-07-30T07:38:19;11.02;;;4.18;;
32319;SDS011;19080;51.750;5.888;2022-07-30T07:40:47;9.77;;;4.35;;
32319;SDS011;19080;51.750;5.888;2022-07-30T07:43:14;13.27;;;4.38;;
32319;SDS011;19080;51.750;5.888;2022-07-30T07:45:41;10.75;;;4.10;;
32319;SDS011;19080;51.750;5.888;2022-07-30T07:48:08;7.53;;;4.05;;
32319;SDS011;19080;51.750;5.888;2022-07-30T07:50:52;9.90;;;4.10;;
32319;SDS011;19080;51.750;5.888;2022-07-30T07:53:26;12.30;;;4.32;;
32319;SDS011;19080;51.750;5.888;2022-07-30T07:55:53;5.97;;;3.65;;
32319;SDS011;19080;51.750;5.888;2022-07-30T07:58:22;6.05;;;3.60;;
32319;SDS011;19080;51.750;5.888;2022-07-30T08:00:55;7.65;;;4.30;;
32319;SDS011;19080;51.750;5.888;2022-07-30T08:03:32;11.35;;;4.13;;
32319;SDS011;19080;51.750;5.888;2022-07-30T08:06:06;8.85;;;4.15;;
32319;SDS011;19080;51.750;5.888;2022-07-30T08:08:56;6.90;;;3.50;;
32319;SDS011;19080;51.750;5.888;2022-07-30T08:11:45;7.15;;;3.92;;
32319;SDS011;19080;51.750;5.888;2022-07-30T08:14:34;6.60;;;3.67;;
32319;SDS011;19080;51.750;5.888;2022-07-30T08:17:19;6.90;;;3.05;;
32319;SDS011;19080;51.750;5.888;2022-07-30T08:20:07;9.50;;;3.38;;
32319;SDS011;19080;51.750;5.888;2022-07-30T08:22:34;8.50;;;3.85;;
32319;SDS011;19080;51.750;5.888;2022-07-30T08:25:00;6.63;;;3.28;;
32319;SDS011;19080;51.750;5.888;2022-07-30T08:27:29;7.20;;;2.85;;
32319;SDS011;19080;51.750;5.888;2022-07-30T08:29:56;8.35;;;3.25;;
32319;SDS011;19080;51.750;5.888;2022-07-30T08:32:24;6.20;;;2.47;;
32319;SDS011;19080;51.750;5.888;2022-07-30T08:34:50;6.30;;;2.28;;
32319;SDS011;19080;51.750;5.888;2022-07-30T08:37:18;4.88;;;2.50;;
32319;SDS011;19080;51.750;5.888;2022-07-30T08:39:44;5.82;;;2.67;;
32319;SDS011;19080;51.750;5.888;2022-07-30T08:42:12;10.73;;;2.72;;
32319;SDS011;19080;51.750;5.888;2022-07-30T08:44:38;5.82;;;2.92;;
32319;SDS011;19080;51.750;5.888;2022-07-30T08:47:06;6.53;;;2.95;;
32319;SDS011;19080;51.750;5.888;2022-07-30T08:49:57;6.13;;;2.80;;
32319;SDS011;19080;51.750;5.888;2022-07-30T08:52:32;7.22;;;3.10;;
32319;SDS011;19080;51.750;5.888;2022-07-30T08:55:00;6.90;;;2.70;;
32319;SDS011;19080;51.750;5.888;2022-07-30T08:57:28;5.30;;;2.13;;
32319;SDS011;19080;51.750;5.888;2022-07-30T08:59:58;5.10;;;2.10;;
32319;SDS011;19080;51.750;5.888;2022-07-30T09:02:29;6.22;;;2.53;;
32319;SDS011;19080;51.750;5.888;2022-07-30T09:05:00;7.00;;;3.03;;
32319;SDS011;19080;51.750;5.888;2022-07-30T09:07:27;4.40;;;2.35;;
32319;SDS011;19080;51.750;5.888;2022-07-30T09:09:54;5.32;;;3.22;;
32319;SDS011;19080;51.750;5.888;2022-07-30T09:12:40;5.75;;;2.88;;
32319;SDS011;19080;51.750;5.888;2022-07-30T09:15:15;6.72;;;2.85;;
32319;SDS011;19080;51.750;5.888;2022-07-30T09:17:52;5.57;;;2.60;;
32319;SDS011;19080;51.750;5.888;2022-07-30T09:20:21;5.53;;;2.63;;
32319;SDS011;19080;51.750;5.888;2022-07-30T09:22:49;5.43;;;2.10;;
32319;SDS011;19080;51.750;5.888;2022-07-30T09:28:29;6.82;;;3.30;;
32319;SDS011;19080;51.750;5.888;2022-07-30T09:31:30;8.95;;;3.97;;
32319;SDS011;19080;51.750;5.888;2022-07-30T09:34:35;7.50;;;3.60;;
32319;SDS011;19080;51.750;5.888;2022-07-30T09:37:03;5.13;;;3.35;;
32319;SDS011;19080;51.750;5.888;2022-07-30T09:39:55;6.28;;;3.78;;
32319;SDS011;19080;51.750;5.888;2022-07-30T09:42:43;10.40;;;3.95;;
32319;SDS011;19080;51.750;5.888;2022-07-30T09:45:11;6.05;;;3.20;;
32319;SDS011;19080;51.750;5.888;2022-07-30T09:47:42;6.20;;;3.38;;
32319;SDS011;19080;51.750;5.888;2022-07-30T09:50:11;5.63;;;3.28;;
32319;SDS011;19080;51.750;5.888;2022-07-30T09:52:44;5.70;;;3.65;;
32319;SDS011;19080;51.750;5.888;2022-07-30T09:55:14;5.30;;;4.10;;
32319;SDS011;19080;51.750;5.888;2022-07-30T09:57:55;8.98;;;4.85;;
32319;SDS011;19080;51.750;5.888;2022-07-30T10:00:25;7.05;;;4.47;;
32319;SDS011;19080;51.750;5.888;2022-07-30T10:03:14;7.35;;;4.10;;
32319;SDS011;19080;51.750;5.888;2022-07-30T10:06:18;6.47;;;4.50;;
32319;SDS011;19080;51.750;5.888;2022-07-30T10:08:57;9.52;;;4.30;;
32319;SDS011;19080;51.750;5.888;2022-07-30T10:11:24;7.80;;;4.70;;
32319;SDS011;19080;51.750;5.888;2022-07-30T10:13:57;8.13;;;3.65;;
32319;SDS011;19080;51.750;5.888;2022-07-30T10:16:25;6.53;;;3.30;;
32319;SDS011;19080;51.750;5.888;2022-07-30T10:18:56;6.53;;;2.60;;
32319;SDS011;19080;51.750;5.888;2022-07-30T10:22:03;5.18;;;2.70;;
32319;SDS011;19080;51.750;5.888;2022-07-30T10:24:50;4.75;;;2.90;;
32319;SDS011;19080;51.750;5.888;2022-07-30T10:27:52;6.63;;;2.80;;
32319;SDS011;19080;51.750;5.888;2022-07-30T10:30:26;4.65;;;2.15;;
32319;SDS011;19080;51.750;5.888;2022-07-30T10:32:55;6.95;;;2.50;;
32319;SDS011;19080;51.750;5.888;2022-07-30T10:35:22;6.40;;;2.58;;
32319;SDS011;19080;51.750;5.888;2022-07-30T10:38:03;5.63;;;2.57;;
32319;SDS011;19080;51.750;5.888;2022-07-30T10:40:33;6.45;;;2.08;;
32319;SDS011;19080;51.750;5.888;2022-07-30T10:43:15;4.55;;;2.13;;
32319;SDS011;19080;51.750;5.888;2022-07-30T10:48:27;4.38;;;2.17;;
32319;SDS011;19080;51.750;5.888;2022-07-30T10:50:57;5.97;;;2.17;;
32319;SDS011;19080;51.750;5.888;2022-07-30T10:56:11;4.93;;;2.25;;
32319;SDS011;19080;51.750;5.888;2022-07-30T10:59:00;3.88;;;1.95;;
32319;SDS011;19080;51.750;5.888;2022-07-30T11:04:22;3.65;;;1.40;;
32319;SDS011;19080;51.750;5.888;2022-07-30T11:06:51;8.80;;;1.95;;
32319;SDS011;19080;51.750;5.888;2022-07-30T11:09:36;5.28;;;1.92;;
32319;SDS011;19080;51.750;5.888;2022-07-30T11:12:07;4.75;;;2.17;;
32319;SDS011;19080;51.750;5.888;2022-07-30T11:17:14;2.88;;;1.73;;
32319;SDS011;19080;51.750;5.888;2022-07-30T11:22:27;2.95;;;1.88;;
32319;SDS011;19080;51.750;5.888;2022-07-30T11:24:58;4.07;;;2.07;;
32319;SDS011;19080;51.750;5.888;2022-07-30T11:30:02;4.50;;;1.95;;
32319;SDS011;19080;51.750;5.888;2022-07-30T11:32:30;3.47;;;1.65;;
32319;SDS011;19080;51.750;5.888;2022-07-30T11:35:11;4.60;;;2.15;;
32319;SDS011;19080;51.750;5.888;2022-07-30T11:37:58;4.50;;;2.15;;
32319;SDS011;19080;51.750;5.888;2022-07-30T11:40:31;3.33;;;1.52;;
32319;SDS011;19080;51.750;5.888;2022-07-30T11:43:14;3.33;;;1.58;;
32319;SDS011;19080;51.750;5.888;2022-07-30T11:45:40;4.10;;;1.73;;
32319;SDS011;19080;51.750;5.888;2022-07-30T11:48:11;2.75;;;1.60;;
32319;SDS011;19080;51.750;5.888;2022-07-30T11:50:38;4.18;;;1.60;;
32319;SDS011;19080;51.750;5.888;2022-07-30T11:53:09;5.53;;;1.67;;
32319;SDS011;19080;51.750;5.888;2022-07-30T11:55:39;5.22;;;1.50;;
32319;SDS011;19080;51.750;5.888;2022-07-30T11:58:21;6.85;;;2.13;;
32319;SDS011;19080;51.750;5.888;2022-07-30T12:00:48;5.70;;;1.97;;
32319;SDS011;19080;51.750;5.888;2022-07-30T12:03:16;3.17;;;1.63;;
32319;SDS011;19080;51.750;5.888;2022-07-30T12:05:43;3.03;;;1.63;;
32319;SDS011;19080;51.750;5.888;2022-07-30T12:08:17;6.03;;;1.70;;
32319;SDS011;19080;51.750;5.888;2022-07-30T12:11:01;3.20;;;1.63;;
32319;SDS011;19080;51.750;5.888;2022-07-30T12:13:28;2.83;;;1.55;;
32319;SDS011;19080;51.750;5.888;2022-07-30T12:16:15;6.05;;;1.25;;
32319;SDS011;19080;51.750;5.888;2022-07-30T12:18:42;4.60;;;1.70;;
32319;SDS011;19080;51.750;5.888;2022-07-30T12:21:09;5.35;;;1.45;;
32319;SDS011;19080;51.750;5.888;2022-07-30T12:23:52;4.50;;;1.65;;
32319;SDS011;19080;51.750;5.888;2022-07-30T12:26:19;3.05;;;1.65;;
32319;SDS011;19080;51.750;5.888;2022-07-30T12:28:46;6.88;;;1.55;;
32319;SDS011;19080;51.750;5.888;2022-07-30T12:31:15;4.20;;;1.45;;
32319;SDS011;19080;51.750;5.888;2022-07-30T12:33:42;2.75;;;1.15;;
32319;SDS011;19080;51.750;5.888;2022-07-30T12:36:09;3.25;;;1.17;;
32319;SDS011;19080;51.750;5.888;2022-07-30T12:38:42;2.35;;;1.27;;
32319;SDS011;19080;51.750;5.888;2022-07-30T12:41:10;7.80;;;2.00;;
32319;SDS011;19080;51.750;5.888;2022-07-30T12:46:22;2.78;;;1.35;;
32319;SDS011;19080;51.750;5.888;2022-07-30T12:48:53;5.10;;;1.40;;
32319;SDS011;19080;51.750;5.888;2022-07-30T12:51:25;5.10;;;1.60;;
32319;SDS011;19080;51.750;5.888;2022-07-30T12:53:52;3.87;;;1.40;;
32319;SDS011;19080;51.750;5.888;2022-07-30T12:56:20;3.45;;;1.30;;
32319;SDS011;19080;51.750;5.888;2022-07-30T12:58:47;5.40;;;1.95;;
32319;SDS011;19080;51.750;5.888;2022-07-30T13:01:14;3.78;;;1.40;;
32319;SDS011;19080;51.750;5.888;2022-07-30T13:03:40;4.32;;;1.45;;
32319;SDS011;19080;51.750;5.888;2022-07-30T13:09:00;5.00;;;1.30;;
32319;SDS011;19080;51.750;5.888;2022-07-30T13:11:40;3.70;;;1.40;;
32319;SDS011;19080;51.750;5.888;2022-07-30T13:14:14;4.28;;;1.60;;
32319;SDS011;19080;51.750;5.888;2022-07-30T13:16:42;2.75;;;1.45;;
32319;SDS011;19080;51.750;5.888;2022-07-30T13:19:09;4.45;;;1.30;;
32319;SDS011;19080;51.750;5.888;2022-07-30T13:21:39;4.43;;;1.60;;
32319;SDS011;19080;51.750;5.888;2022-07-30T13:24:14;4.80;;;1.60;;
32319;SDS011;19080;51.750;5.888;2022-07-30T13:26:43;3.42;;;1.15;;
32319;SDS011;19080;51.750;5.888;2022-07-30T13:29:10;2.70;;;1.30;;
32319;SDS011;19080;51.750;5.888;2022-07-30T13:31:39;4.13;;;1.40;;
32319;SDS011;19080;51.750;5.888;2022-07-30T13:34:09;2.38;;;1.30;;
32319;SDS011;19080;51.750;5.888;2022-07-30T13:36:35;3.72;;;1.60;;
32319;SDS011;19080;51.750;5.888;2022-07-30T13:39:02;3.33;;;1.38;;
32319;SDS011;19080;51.750;5.888;2022-07-30T13:41:28;5.97;;;1.30;;
32319;SDS011;19080;51.750;5.888;2022-07-30T13:43:55;6.57;;;1.40;;
32319;SDS011;19080;51.750;5.888;2022-07-30T13:46:21;3.97;;;1.33;;
32319;SDS011;19080;51.750;5.888;2022-07-30T13:48:48;4.07;;;1.08;;
32319;SDS011;19080;51.750;5.888;2022-07-30T13:51:15;6.38;;;1.60;;
32319;SDS011;19080;51.750;5.888;2022-07-30T13:53:41;3.60;;;1.40;;
32319;SDS011;19080;51.750;5.888;2022-07-30T13:56:08;2.95;;;1.10;;
32319;SDS011;19080;51.750;5.888;2022-07-30T13:58:38;3.38;;;1.50;;
32319;SDS011;19080;51.750;5.888;2022-07-30T14:01:04;4.80;;;1.45;;
32319;SDS011;19080;51.750;5.888;2022-07-30T14:03:32;3.15;;;1.60;;
32319;SDS011;19080;51.750;5.888;2022-07-30T14:05:59;4.18;;;1.50;;
32319;SDS011;19080;51.750;5.888;2022-07-30T14:08:36;3.85;;;1.20;;
32319;SDS011;19080;51.750;5.888;2022-07-30T14:11:03;2.78;;;1.10;;
32319;SDS011;19080;51.750;5.888;2022-07-30T14:13:29;3.90;;;1.40;;
32319;SDS011;19080;51.750;5.888;2022-07-30T14:15:56;5.50;;;1.38;;
32319;SDS011;19080;51.750;5.888;2022-07-30T14:18:23;2.28;;;1.35;;
32319;SDS011;19080;51.750;5.888;2022-07-30T14:20:49;4.43;;;1.50;;
32319;SDS011;19080;51.750;5.888;2022-07-30T14:23:18;4.45;;;1.38;;
32319;SDS011;19080;51.750;5.888;2022-07-30T14:25:45;4.32;;;1.52;;
32319;SDS011;19080;51.750;5.888;2022-07-30T14:28:11;3.97;;;1.35;;
32319;SDS011;19080;51.750;5.888;2022-07-30T14:30:38;3.55;;;1.30;;
32319;SDS011;19080;51.750;5.888;2022-07-30T14:33:04;4.28;;;1.50;;
32319;SDS011;19080;51.750;5.888;2022-07-30T14:35:31;4.60;;;1.25;;
32319;SDS011;19080;51.750;5.888;2022-07-30T14:37:57;3.25;;;1.25;;
32319;SDS011;19080;51.750;5.888;2022-07-30T14:40:25;3.80;;;1.25;;
32319;SDS011;19080;51.750;5.888;2022-07-30T14:42:51;2.65;;;1.08;;
32319;SDS011;19080;51.750;5.888;2022-07-30T14:45:30;3.35;;;1.25;;
32319;SDS011;19080;51.750;5.888;2022-07-30T14:48:16;2.45;;;1.20;;
32319;SDS011;19080;51.750;5.888;2022-07-30T14:50:42;9.25;;;1.60;;
32319;SDS011;19080;51.750;5.888;2022-07-30T14:53:29;2.50;;;1.30;;
32319;SDS011;19080;51.750;5.888;2022-07-30T14:55:56;3.47;;;1.10;;
32319;SDS011;19080;51.750;5.888;2022-07-30T14:58:22;4.10;;;1.63;;
32319;SDS011;19080;51.750;5.888;2022-07-30T15:00:49;7.53;;;1.35;;
32319;SDS011;19080;51.750;5.888;2022-07-30T15:03:16;3.15;;;1.30;;
32319;SDS011;19080;51.750;5.888;2022-07-30T15:05:44;6.43;;;1.70;;
32319;SDS011;19080;51.750;5.888;2022-07-30T15:08:17;6.38;;;1.33;;
32319;SDS011;19080;51.750;5.888;2022-07-30T15:10:43;4.90;;;1.58;;
32319;SDS011;19080;51.750;5.888;2022-07-30T15:13:10;4.65;;;1.50;;
32319;SDS011;19080;51.750;5.888;2022-07-30T15:15:37;3.05;;;1.40;;
32319;SDS011;19080;51.750;5.888;2022-07-30T15:18:04;2.40;;;1.20;;
32319;SDS011;19080;51.750;5.888;2022-07-30T15:20:30;6.07;;;1.90;;
32319;SDS011;19080;51.750;5.888;2022-07-30T15:22:57;3.30;;;1.48;;
32319;SDS011;19080;51.750;5.888;2022-07-30T15:25:23;4.60;;;1.70;;
32319;SDS011;19080;51.750;5.888;2022-07-30T15:27:50;5.25;;;2.67;;